createdAt,value
2023-04-14T00:00:10.635Z,3.03
2023-04-14T00:02:41.344Z,3.22
2023-04-14T00:05:09.593Z,2.65
2023-04-14T00:07:37.458Z,3.42
2023-04-14T00:10:05.437Z,2.47
2023-04-14T00:12:36.112Z,2.10
2023-04-14T00:15:04.362Z,2.58
2023-04-14T00:17:32.712Z,1.50
2023-04-14T00:20:00.732Z,2.13
2023-04-14T00:22:31.117Z,1.00
2023-04-14T00:24:58.929Z,1.48
2023-04-14T00:27:26.866Z,1.55
2023-04-14T00:29:54.543Z,1.33
2023-04-14T00:32:22.211Z,2.17
2023-04-14T00:34:49.834Z,1.90
2023-04-14T00:37:20.290Z,5.70
2023-04-14T00:39:48.065Z,1.40
2023-04-14T00:42:15.684Z,1.40
2023-04-14T00:44:43.932Z,1.73
2023-04-14T00:47:11.724Z,3.28
2023-04-14T00:49:39.721Z,1.30
2023-04-14T00:52:07.668Z,1.90
2023-04-14T00:54:35.722Z,1.13
2023-04-14T00:57:04.509Z,2.40
2023-04-14T00:59:32.523Z,1.77
2023-04-14T01:02:01.989Z,1.55
2023-04-14T01:04:40.776Z,2.33
2023-04-14T01:07:19.791Z,1.70
2023-04-14T01:09:47.847Z,1.77
2023-04-14T01:12:54.003Z,2.10
2023-04-14T01:15:44.420Z,1.20
2023-04-14T01:18:52.049Z,2.70
2023-04-14T01:21:36.351Z,2.10
2023-04-14T01:24:38.871Z,2.25
2023-04-14T01:27:43.774Z,1.88
2023-04-14T01:30:58.208Z,2.33
2023-04-14T01:33:31.031Z,1.30
2023-04-14T01:36:06.416Z,3.28
2023-04-14T01:41:11.082Z,1.42
2023-04-14T01:43:44.914Z,1.95
2023-04-14T01:46:16.622Z,1.30
2023-04-14T01:48:45.710Z,1.27
2023-04-14T01:51:16.980Z,2.10
2023-04-14T01:53:46.602Z,1.65
2023-04-14T01:56:17.477Z,1.90
2023-04-14T01:58:47.859Z,1.27
2023-04-14T02:01:17.397Z,2.00
2023-04-14T02:03:46.269Z,1.25
2023-04-14T02:06:14.988Z,1.17
2023-04-14T02:08:44.255Z,2.28
2023-04-14T02:11:16.204Z,1.13
2023-04-14T02:13:49.436Z,2.38
2023-04-14T02:16:18.053Z,1.30
2023-04-14T02:18:49.335Z,2.83
2023-04-14T02:21:19.023Z,1.35
2023-04-14T02:23:46.788Z,1.85
2023-04-14T02:26:20.510Z,2.15
2023-04-14T02:29:17.402Z,2.15
2023-04-14T02:31:51.340Z,7.65
2023-04-14T02:34:25.417Z,1.40
2023-04-14T02:36:58.387Z,4.10
2023-04-14T02:39:37.636Z,3.35
2023-04-14T02:42:16.466Z,3.20
2023-04-14T02:45:00.909Z,1.10
2023-04-14T02:47:34.622Z,2.15
2023-04-14T02:50:06.164Z,4.97
2023-04-14T02:52:39.150Z,2.10
2023-04-14T02:55:10.113Z,5.35
2023-04-14T02:57:38.526Z,2.15
2023-04-14T03:00:08.405Z,2.28
2023-04-14T03:02:46.650Z,1.40
2023-04-14T03:05:15.074Z,2.05
2023-04-14T03:07:56.216Z,4.97
2023-04-14T03:10:25.061Z,5.93
2023-04-14T03:12:54.389Z,1.40
2023-04-14T03:15:26.303Z,1.50
2023-04-14T03:17:57.554Z,1.95
2023-04-14T03:20:30.197Z,1.10
2023-04-14T03:23:06.452Z,2.30
2023-04-14T03:25:42.837Z,1.80
2023-04-14T03:28:23.064Z,1.70
2023-04-14T03:30:54.465Z,1.85
2023-04-14T03:33:28.824Z,1.77
2023-04-14T03:36:01.823Z,1.70
2023-04-14T03:38:32.413Z,3.30
2023-04-14T03:41:05.809Z,1.63
2023-04-14T03:43:34.475Z,1.67
2023-04-14T03:46:07.676Z,2.00
2023-04-14T03:48:42.855Z,2.20
2023-04-14T03:51:16.362Z,1.17
2023-04-14T03:53:47.011Z,2.72
2023-04-14T03:56:18.272Z,1.40
2023-04-14T03:58:48.260Z,2.53
2023-04-14T04:05:49.456Z,1.35
2023-04-14T04:08:20.208Z,1.63
2023-04-14T04:10:49.990Z,1.73
2023-04-14T04:13:24.038Z,1.35
2023-04-14T04:15:52.503Z,1.35
2023-04-14T04:18:27.087Z,1.77
2023-04-14T04:20:58.647Z,3.38
2023-04-14T04:23:31.791Z,1.42
2023-04-14T04:26:00.042Z,1.95
2023-04-14T04:28:39.818Z,1.52
2023-04-14T04:31:10.105Z,1.55
2023-04-14T04:33:39.396Z,1.40
2023-04-14T04:36:14.581Z,2.13
2023-04-14T04:38:44.220Z,1.83
2023-04-14T04:41:30.363Z,2.25
2023-04-14T04:44:02.055Z,3.97
2023-04-14T04:46:55.076Z,3.90
2023-04-14T04:49:28.594Z,2.63
2023-04-14T04:52:01.794Z,5.93
2023-04-14T04:54:29.445Z,4.30
2023-04-14T04:56:58.995Z,6.65
2023-04-14T04:59:26.759Z,3.75
2023-04-14T05:01:55.426Z,5.18
2023-04-14T05:04:23.100Z,2.67
2023-04-14T05:06:51.007Z,10.00
2023-04-14T05:09:18.595Z,2.85
2023-04-14T05:11:46.501Z,2.80
2023-04-14T05:14:14.255Z,2.80
2023-04-14T05:16:42.366Z,5.68
2023-04-14T05:19:09.998Z,4.20
2023-04-14T05:21:38.016Z,5.22
2023-04-14T05:24:09.625Z,2.03
2023-04-14T05:26:54.850Z,3.03
2023-04-14T05:29:26.016Z,4.60
2023-04-14T05:31:53.510Z,1.95
2023-04-14T05:34:21.199Z,2.85
2023-04-14T05:36:48.771Z,2.28
2023-04-14T05:39:16.883Z,4.22
2023-04-14T05:41:44.503Z,6.93
2023-04-14T05:44:12.341Z,2.70
2023-04-14T05:46:39.949Z,3.95
2023-04-14T05:49:08.007Z,3.88
2023-04-14T05:51:36.497Z,3.60
2023-04-14T05:54:04.287Z,3.50
2023-04-14T05:56:32.158Z,4.47
2023-04-14T05:58:59.887Z,3.10
2023-04-14T06:01:27.640Z,4.05
2023-04-14T06:03:55.353Z,7.32
2023-04-14T06:06:23.427Z,4.50
2023-04-14T06:08:56.600Z,2.47
2023-04-14T06:11:24.325Z,3.53
2023-04-14T06:13:52.267Z,3.53
2023-04-14T06:16:19.870Z,2.85
2023-04-14T06:18:50.443Z,2.10
2023-04-14T06:21:18.025Z,3.28
2023-04-14T06:23:45.756Z,4.47
2023-04-14T06:26:13.439Z,3.22
2023-04-14T06:28:44.436Z,5.32
2023-04-14T06:31:12.117Z,6.25
2023-04-14T06:33:39.783Z,2.28
2023-04-14T06:36:07.994Z,2.15
2023-04-14T06:38:36.757Z,2.80
2023-04-14T06:41:04.678Z,3.00
2023-04-14T06:43:32.226Z,5.50
2023-04-14T06:46:01.587Z,4.15
2023-04-14T06:48:29.321Z,6.03
2023-04-14T06:50:57.746Z,8.93
2023-04-14T06:53:26.715Z,9.80
2023-04-14T06:56:00.761Z,10.90
2023-04-14T06:58:29.364Z,13.30
2023-04-14T07:00:58.990Z,7.93
2023-04-14T07:03:28.525Z,9.65
2023-04-14T07:06:06.062Z,7.68
2023-04-14T07:08:35.440Z,17.38
2023-04-14T07:11:06.628Z,9.45
2023-04-14T07:13:34.608Z,13.02
2023-04-14T07:16:03.880Z,9.48
2023-04-14T07:18:32.090Z,8.90
2023-04-14T07:21:03.290Z,9.77
2023-04-14T07:23:31.329Z,9.77
2023-04-14T07:26:01.135Z,5.50
2023-04-14T07:28:28.890Z,4.00
2023-04-14T07:30:56.950Z,6.63
2023-04-14T07:33:25.544Z,10.00
2023-04-14T07:36:03.096Z,5.65
2023-04-14T07:38:34.595Z,8.13
2023-04-14T07:41:07.318Z,7.90
2023-04-14T07:43:36.017Z,5.03
2023-04-14T07:46:06.121Z,9.13
2023-04-14T07:48:38.283Z,10.55
2023-04-14T07:51:07.172Z,5.30
2023-04-14T07:53:40.683Z,9.98
2023-04-14T07:56:08.851Z,6.20
2023-04-14T07:58:38.261Z,10.10
2023-04-14T08:01:14.431Z,6.63
2023-04-14T08:03:45.177Z,3.30
2023-04-14T08:06:13.767Z,8.80
2023-04-14T08:08:41.288Z,7.28
2023-04-14T08:11:08.944Z,12.75
2023-04-14T08:13:36.412Z,18.50
2023-04-14T08:16:04.839Z,19.98
2023-04-14T08:18:32.692Z,16.30
2023-04-14T08:21:00.562Z,13.10
2023-04-14T08:23:28.207Z,11.85
2023-04-14T08:25:55.937Z,11.98
2023-04-14T08:28:23.669Z,13.43
2023-04-14T08:30:52.274Z,9.70
2023-04-14T08:33:19.824Z,12.75
2023-04-14T08:35:47.434Z,11.80
2023-04-14T08:38:27.087Z,11.98
2023-04-14T08:40:56.956Z,12.30
2023-04-14T08:43:24.897Z,8.65
2023-04-14T08:45:54.145Z,12.07
2023-04-14T08:48:25.039Z,9.30
2023-04-14T08:51:07.358Z,9.55
2023-04-14T08:53:42.950Z,9.23
2023-04-14T08:56:15.289Z,8.73
2023-04-14T08:58:43.289Z,8.10
2023-04-14T09:01:11.638Z,7.63
2023-04-14T09:03:42.764Z,9.38
2023-04-14T09:06:12.478Z,6.88
2023-04-14T09:08:40.261Z,9.90
2023-04-14T09:11:10.759Z,7.50
2023-04-14T09:13:39.536Z,5.25
2023-04-14T09:16:08.891Z,10.57
2023-04-14T09:18:36.757Z,6.50
2023-04-14T09:21:31.754Z,5.18
2023-04-14T09:23:54.514Z,5.80
2023-04-14T09:26:22.775Z,6.22
2023-04-14T09:28:50.890Z,11.05
2023-04-14T09:31:19.928Z,3.97
2023-04-14T09:33:57.519Z,4.85
2023-04-14T09:36:29.181Z,6.40
2023-04-14T09:38:57.550Z,6.13
2023-04-14T09:41:28.546Z,5.50
2023-04-14T09:43:56.635Z,4.00
2023-04-14T09:46:24.569Z,6.00
2023-04-14T09:48:56.799Z,4.95
2023-04-14T09:51:34.009Z,6.28
2023-04-14T09:54:06.264Z,4.55
2023-04-14T09:56:34.425Z,7.72
2023-04-14T09:59:04.281Z,12.70
2023-04-14T10:01:34.706Z,11.90
2023-04-14T10:04:03.450Z,10.20
2023-04-14T10:06:34.016Z,11.55
2023-04-14T10:09:02.275Z,14.65
2023-04-14T10:11:38.336Z,14.48
2023-04-14T10:14:06.995Z,13.70
2023-04-14T10:16:35.210Z,12.95
2023-04-14T10:19:03.889Z,11.68
2023-04-14T10:21:32.244Z,13.95
2023-04-14T10:24:00.360Z,17.77
2023-04-14T10:26:30.231Z,15.05
2023-04-14T10:28:58.763Z,17.08
2023-04-14T10:31:41.202Z,11.43
2023-04-14T10:34:16.602Z,15.10
2023-04-14T10:36:51.034Z,14.50
2023-04-14T10:39:28.860Z,12.65
2023-04-14T10:41:57.084Z,16.13
2023-04-14T10:44:35.299Z,12.35
2023-04-14T10:47:08.950Z,10.27
2023-04-14T10:49:41.713Z,12.45
2023-04-14T10:52:15.882Z,13.98
2023-04-14T10:54:54.411Z,10.00
2023-04-14T10:57:26.980Z,13.57
2023-04-14T10:59:57.726Z,15.77
2023-04-14T11:02:34.002Z,10.38
2023-04-14T11:05:14.696Z,13.10
2023-04-14T11:07:54.663Z,12.13
2023-04-14T11:10:22.652Z,14.73
2023-04-14T11:13:11.821Z,9.98
2023-04-14T11:16:09.901Z,9.43
2023-04-14T11:18:45.315Z,11.13
2023-04-14T11:21:17.292Z,8.52
2023-04-14T11:23:45.230Z,8.73
2023-04-14T11:26:14.424Z,13.90
2023-04-14T11:28:47.921Z,12.80
2023-04-14T11:31:17.381Z,17.15
2023-04-14T11:33:45.197Z,8.95
2023-04-14T11:36:13.670Z,8.02
2023-04-14T11:38:42.931Z,11.70
2023-04-14T11:41:11.103Z,14.05
2023-04-14T11:43:39.596Z,11.57
2023-04-14T11:46:09.018Z,8.52
2023-04-14T11:48:37.570Z,14.52
2023-04-14T11:51:08.274Z,10.38
2023-04-14T11:53:40.059Z,11.45
2023-04-14T11:56:09.364Z,13.52
2023-04-14T11:58:37.433Z,9.00
2023-04-14T12:01:05.752Z,9.82
2023-04-14T12:03:35.892Z,9.98
2023-04-14T12:06:04.876Z,8.35
2023-04-14T12:08:34.458Z,10.82
2023-04-14T12:11:18.567Z,7.90
2023-04-14T12:13:48.312Z,8.25
2023-04-14T12:16:17.717Z,5.85
2023-04-14T12:18:46.533Z,10.45
2023-04-14T12:21:21.197Z,10.07
2023-04-14T12:23:49.600Z,8.65
2023-04-14T12:26:20.010Z,13.75
2023-04-14T12:28:58.127Z,10.23
2023-04-14T12:31:32.801Z,15.63
2023-04-14T12:34:04.298Z,11.88
2023-04-14T12:36:48.130Z,10.15
2023-04-14T12:39:23.573Z,9.50
2023-04-14T12:41:51.489Z,6.57
2023-04-14T12:44:22.198Z,9.90
2023-04-14T12:46:52.958Z,8.68
2023-04-14T12:49:39.276Z,5.97
2023-04-14T12:52:08.772Z,5.88
2023-04-14T12:54:52.843Z,9.25
2023-04-14T12:57:22.060Z,15.25
2023-04-14T12:59:50.787Z,9.00
2023-04-14T13:02:19.064Z,10.73
2023-04-14T13:04:47.066Z,5.63
2023-04-14T13:07:14.763Z,7.50
2023-04-14T13:09:43.929Z,6.10
2023-04-14T13:12:11.631Z,11.02
2023-04-14T13:14:39.591Z,7.25
2023-04-14T13:17:07.996Z,5.47
2023-04-14T13:19:35.868Z,5.15
2023-04-14T13:22:06.723Z,7.30
2023-04-14T13:24:34.560Z,7.13
2023-04-14T13:27:06.998Z,8.32
2023-04-14T13:29:41.186Z,7.47
2023-04-14T13:32:11.360Z,5.63
2023-04-14T13:34:42.484Z,7.57
2023-04-14T13:37:13.650Z,3.67
2023-04-14T13:39:41.614Z,5.32
2023-04-14T13:42:12.220Z,3.17
2023-04-14T13:44:39.964Z,4.28
2023-04-14T13:47:08.357Z,4.18
2023-04-14T13:49:35.948Z,2.58
2023-04-14T13:52:04.356Z,5.38
2023-04-14T13:54:32.148Z,2.72
2023-04-14T13:57:01.134Z,4.45
2023-04-14T13:59:31.514Z,4.22
2023-04-14T14:01:59.943Z,2.42
2023-04-14T14:04:27.992Z,2.75
2023-04-14T14:06:58.406Z,2.40
2023-04-14T14:09:26.195Z,2.08
2023-04-14T14:11:53.826Z,2.28
2023-04-14T14:14:22.061Z,3.10
2023-04-14T14:16:49.990Z,2.20
2023-04-14T14:19:18.513Z,3.70
2023-04-14T14:21:46.579Z,4.18
2023-04-14T14:24:15.066Z,3.70
2023-04-14T14:26:42.884Z,1.92
2023-04-14T14:29:11.077Z,2.10
2023-04-14T14:31:39.011Z,4.03
2023-04-14T14:34:07.627Z,2.90
2023-04-14T14:36:36.980Z,4.78
2023-04-14T14:39:05.162Z,2.85
2023-04-14T14:41:32.932Z,3.83
2023-04-14T14:44:01.561Z,3.85
2023-04-14T14:46:30.289Z,7.68
2023-04-14T14:48:58.734Z,5.72
2023-04-14T14:51:28.229Z,6.07
2023-04-14T14:54:08.954Z,7.38
2023-04-14T14:56:37.375Z,10.25
2023-04-14T14:59:10.001Z,7.55
2023-04-14T15:01:39.413Z,5.22
2023-04-14T15:04:09.677Z,6.35
2023-04-14T15:06:38.353Z,8.15
2023-04-14T15:09:08.833Z,4.90
2023-04-14T15:11:36.666Z,12.60
2023-04-14T15:14:05.348Z,6.43
2023-04-14T15:16:33.760Z,5.30
2023-04-14T15:19:02.030Z,9.20
2023-04-14T15:21:33.081Z,4.07
2023-04-14T15:24:02.241Z,5.55
2023-04-14T15:26:30.234Z,8.55
2023-04-14T15:28:57.990Z,9.82
2023-04-14T15:31:28.947Z,6.38
2023-04-14T15:34:00.942Z,9.60
2023-04-14T15:36:29.438Z,8.43
2023-04-14T15:39:00.576Z,8.27
2023-04-14T15:41:29.412Z,6.57
2023-04-14T15:43:57.449Z,7.38
2023-04-14T15:46:25.385Z,7.40
2023-04-14T15:48:53.200Z,8.55
2023-04-14T15:51:20.780Z,6.03
2023-04-14T15:53:49.151Z,10.75
2023-04-14T15:56:16.672Z,8.95
2023-04-14T15:58:44.190Z,6.22
2023-04-14T16:01:12.647Z,7.47
2023-04-14T16:03:40.571Z,5.60
2023-04-14T16:06:10.763Z,4.32
2023-04-14T16:08:38.306Z,5.28
2023-04-14T16:11:16.805Z,3.53
2023-04-14T16:13:45.803Z,8.70
2023-04-14T16:16:15.630Z,4.32
2023-04-14T16:18:43.483Z,8.27
2023-04-14T16:21:11.522Z,7.55
2023-04-14T16:23:39.281Z,6.00
2023-04-14T16:26:06.854Z,6.75
2023-04-14T16:28:35.374Z,3.95
2023-04-14T16:31:03.865Z,6.03
2023-04-14T16:33:34.484Z,8.27
2023-04-14T16:36:09.222Z,13.07
2023-04-14T16:38:36.877Z,2.92
2023-04-14T16:41:04.633Z,9.02
2023-04-14T16:43:33.021Z,10.68
2023-04-14T16:46:04.949Z,8.45
2023-04-14T16:48:33.528Z,6.50
2023-04-14T16:51:09.755Z,9.75
2023-04-14T16:53:40.933Z,6.55
2023-04-14T16:56:10.273Z,5.82
2023-04-14T16:58:40.216Z,4.95
2023-04-14T17:01:10.638Z,7.25
2023-04-14T17:03:39.661Z,6.13
2023-04-14T17:06:07.625Z,5.93
2023-04-14T17:08:35.457Z,3.83
2023-04-14T17:11:03.672Z,5.55
2023-04-14T17:13:31.277Z,4.75
2023-04-14T17:16:08.279Z,6.57
2023-04-14T17:18:37.351Z,4.97
2023-04-14T17:21:06.578Z,5.25
2023-04-14T17:23:38.251Z,4.07
2023-04-14T17:26:06.103Z,3.92
2023-04-14T17:28:37.441Z,3.55
2023-04-14T17:31:15.774Z,5.30
2023-04-14T17:33:47.594Z,5.95
2023-04-14T17:36:16.792Z,3.45
2023-04-14T17:38:44.912Z,2.80
2023-04-14T17:41:14.894Z,3.40
2023-04-14T17:43:46.771Z,7.10
2023-04-14T17:46:15.428Z,3.28
2023-04-14T17:48:43.075Z,3.15
2023-04-14T17:51:11.776Z,2.53
2023-04-14T17:53:39.308Z,2.50
2023-04-14T17:56:11.343Z,3.97
2023-04-14T17:58:38.805Z,3.08
2023-04-14T18:01:06.405Z,2.70
2023-04-14T18:03:36.647Z,1.75
2023-04-14T18:06:04.602Z,4.22
2023-04-14T18:08:34.990Z,3.83
2023-04-14T18:11:02.476Z,2.78
2023-04-14T18:13:33.713Z,1.73
2023-04-14T18:16:02.093Z,3.75
2023-04-14T18:18:32.012Z,2.53
2023-04-14T18:20:59.365Z,2.45
2023-04-14T18:23:26.929Z,2.53
2023-04-14T18:28:33.419Z,6.75
2023-04-14T18:31:01.809Z,3.25
2023-04-14T18:33:30.000Z,3.83
2023-04-14T18:36:00.769Z,2.92
2023-04-14T18:38:28.956Z,4.95
2023-04-14T18:41:05.571Z,7.05
2023-04-14T18:43:34.094Z,4.15
2023-04-14T18:46:02.844Z,6.32
2023-04-14T18:48:31.065Z,5.20
2023-04-14T18:51:02.657Z,9.32
2023-04-14T18:53:30.443Z,4.30
2023-04-14T18:56:00.722Z,6.20
2023-04-14T18:58:30.612Z,5.40
2023-04-14T19:00:58.585Z,6.40
2023-04-14T19:03:27.530Z,4.55
2023-04-14T19:05:55.688Z,2.28
2023-04-14T19:08:23.248Z,6.82
2023-04-14T19:10:51.997Z,6.63
2023-04-14T19:13:19.896Z,8.65
2023-04-14T19:15:47.525Z,12.82
2023-04-14T19:18:17.122Z,7.30
2023-04-14T19:20:47.557Z,12.50
2023-04-14T19:23:15.446Z,9.80
2023-04-14T19:25:43.139Z,7.20
2023-04-14T19:28:16.751Z,6.72
2023-04-14T19:30:46.088Z,6.75
2023-04-14T19:33:14.232Z,9.88
2023-04-14T19:35:44.450Z,15.60
2023-04-14T19:38:12.560Z,31.17
2023-04-14T19:40:49.034Z,35.38
2023-04-14T19:43:20.805Z,47.58
2023-04-14T19:45:57.301Z,39.53
2023-04-14T19:48:25.644Z,54.10
2023-04-14T19:50:56.842Z,73.30
2023-04-14T19:53:24.929Z,105.95
2023-04-14T19:55:56.108Z,101.63
2023-04-14T19:58:31.443Z,102.65
2023-04-14T20:01:01.138Z,104.50
2023-04-14T20:03:29.174Z,107.53
2023-04-14T20:05:58.228Z,103.60
2023-04-14T20:08:30.765Z,105.68
2023-04-14T20:10:59.089Z,100.70
2023-04-14T20:13:30.720Z,89.72
2023-04-14T20:15:59.093Z,91.57
2023-04-14T20:18:28.163Z,81.13
2023-04-14T20:20:56.890Z,88.57
2023-04-14T20:23:24.573Z,85.40
2023-04-14T20:25:53.325Z,84.28
2023-04-14T20:28:23.298Z,68.10
2023-04-14T20:30:54.812Z,72.90
2023-04-14T20:33:23.316Z,70.82
2023-04-14T20:35:53.689Z,72.95
2023-04-14T20:38:22.683Z,68.57
2023-04-14T20:40:50.405Z,64.90
2023-04-14T20:43:24.850Z,68.60
2023-04-14T20:45:53.477Z,67.73
2023-04-14T20:48:21.320Z,72.47
2023-04-14T20:50:50.367Z,70.97
2023-04-14T20:53:19.461Z,71.75
2023-04-14T20:55:47.074Z,76.10
2023-04-14T20:58:14.922Z,79.53
2023-04-14T21:00:43.602Z,80.32
2023-04-14T21:03:12.032Z,77.68
2023-04-14T21:05:42.721Z,75.15
2023-04-14T21:08:10.299Z,68.75
2023-04-14T21:11:02.177Z,79.38
2023-04-14T21:15:29.719Z,68.97
2023-04-14T21:16:19.455Z,67.90
2023-04-14T21:18:47.521Z,63.78
2023-04-14T21:21:15.639Z,65.03
2023-04-14T21:23:45.126Z,64.28
2023-04-14T21:26:13.652Z,60.92
2023-04-14T21:28:42.100Z,56.15
2023-04-14T21:31:10.692Z,58.53
2023-04-14T21:33:40.290Z,58.83
2023-04-14T21:36:11.136Z,54.72
2023-04-14T21:38:39.639Z,52.63
2023-04-14T21:41:09.016Z,47.90
2023-04-14T21:43:41.035Z,46.42
2023-04-14T21:46:09.025Z,49.28
2023-04-14T21:48:36.904Z,42.75
2023-04-14T21:51:05.391Z,47.28
2023-04-14T21:53:33.548Z,47.30
2023-04-14T21:56:09.300Z,47.28
2023-04-14T21:58:42.316Z,46.00
2023-04-14T22:01:10.493Z,41.35
2023-04-14T22:03:41.167Z,40.60
2023-04-14T22:06:11.548Z,36.47
2023-04-14T22:08:41.146Z,38.42
2023-04-14T22:11:09.174Z,35.00
2023-04-14T22:13:37.108Z,35.40
2023-04-14T22:16:05.560Z,32.72
2023-04-14T22:18:33.197Z,32.78
2023-04-14T22:21:00.846Z,33.55
2023-04-14T22:23:28.755Z,37.53
2023-04-14T22:25:57.120Z,28.27
2023-04-14T22:28:24.763Z,31.05
2023-04-14T22:30:52.471Z,29.77
2023-04-14T22:33:20.298Z,22.95
2023-04-14T22:35:48.164Z,29.40
2023-04-14T22:38:15.927Z,35.53
2023-04-14T22:40:43.725Z,25.08
2023-04-14T22:43:11.328Z,27.85
2023-04-14T22:45:40.256Z,27.45
2023-04-14T22:48:11.912Z,20.63
2023-04-14T22:50:40.130Z,27.48
2023-04-14T22:53:07.861Z,29.77
2023-04-14T22:55:35.498Z,20.48
2023-04-14T22:58:03.358Z,22.30
2023-04-14T23:00:31.814Z,23.33
2023-04-14T23:02:59.980Z,21.20
2023-04-14T23:05:28.268Z,19.20
2023-04-14T23:07:59.100Z,18.75
2023-04-14T23:10:26.775Z,19.63
2023-04-14T23:12:58.695Z,16.20
2023-04-14T23:15:26.604Z,24.10
2023-04-14T23:17:54.346Z,17.63
2023-04-14T23:20:23.575Z,17.52
2023-04-14T23:22:51.737Z,18.50
2023-04-14T23:25:19.604Z,17.17
2023-04-14T23:27:50.146Z,13.40
2023-04-14T23:30:18.310Z,15.15
2023-04-14T23:32:46.765Z,16.73
2023-04-14T23:35:14.903Z,19.52
2023-04-14T23:37:42.608Z,15.38
2023-04-14T23:40:11.372Z,13.90
2023-04-14T23:42:38.914Z,12.35
2023-04-14T23:45:08.340Z,17.35
2023-04-14T23:47:36.746Z,12.45
2023-04-14T23:50:05.203Z,13.93
2023-04-14T23:52:36.280Z,10.82
2023-04-14T23:55:07.374Z,12.35
2023-04-14T23:57:35.069Z,19.08
